Terminal Aerodrome Forecast
Issued by NWS

Home | Current Version | Previous Version | Text Only | Print | Product List | Glossary On
Versions: 1 2 3 4 5 6 7 8 9 10 11 12 13 14 15 16 17 18 19
000
FTUS46 KMTR 061130
TAFMRY
TAF
KMRY 061130Z 0612/0712 24004KT P6SM OVC008
     FM062000 29009KT P6SM SCT012
     FM070100 25005KT P6SM BKN009
     FM070400 24004KT P6SM OVC008=

USA.gov is the U.S. government's official web portal to all federal, state and local government web resources and services.